sensor_id;sensor_type;location;lat;lon;timestamp;temperature;humidity
45008;DHT22;30743;52.008;5.644;2022-07-29T00:00:28;21.10;93.30
45008;DHT22;30743;52.008;5.644;2022-07-29T00:02:54;20.90;93.30
45008;DHT22;30743;52.008;5.644;2022-07-29T00:05:20;20.80;93.60
45008;DHT22;30743;52.008;5.644;2022-07-29T00:07:45;20.80;93.40
45008;DHT22;30743;52.008;5.644;2022-07-29T00:10:11;20.80;93.80
45008;DHT22;30743;52.008;5.644;2022-07-29T00:12:36;20.80;93.70
45008;DHT22;30743;52.008;5.644;2022-07-29T00:15:03;21.00;93.50
45008;DHT22;30743;52.008;5.644;2022-07-29T00:17:29;20.90;93.30
45008;DHT22;30743;52.008;5.644;2022-07-29T00:19:54;20.90;93.60
45008;DHT22;30743;52.008;5.644;2022-07-29T00:22:20;20.60;94.10
45008;DHT22;30743;52.008;5.644;2022-07-29T00:24:48;20.70;94.10
45008;DHT22;30743;52.008;5.644;2022-07-29T00:27:14;20.70;94.10
45008;DHT22;30743;52.008;5.644;2022-07-29T00:29:39;20.90;94.10
45008;DHT22;30743;52.008;5.644;2022-07-29T00:32:05;20.80;94.20
45008;DHT22;30743;52.008;5.644;2022-07-29T00:34:31;20.80;94.20
45008;DHT22;30743;52.008;5.644;2022-07-29T00:37:15;20.80;94.20
45008;DHT22;30743;52.008;5.644;2022-07-29T00:39:40;20.90;94.20
45008;DHT22;30743;52.008;5.644;2022-07-29T00:42:06;21.00;94.10
45008;DHT22;30743;52.008;5.644;2022-07-29T00:44:39;20.90;94.20
45008;DHT22;30743;52.008;5.644;2022-07-29T00:47:06;20.80;94.40
45008;DHT22;30743;52.008;5.644;2022-07-29T00:49:33;20.80;94.60
45008;DHT22;30743;52.008;5.644;2022-07-29T00:52:01;20.70;94.70
45008;DHT22;30743;52.008;5.644;2022-07-29T00:54:26;20.50;94.90
45008;DHT22;30743;52.008;5.644;2022-07-29T00:56:53;20.30;95.10
45008;DHT22;30743;52.008;5.644;2022-07-29T00:59:18;20.30;95.40
45008;DHT22;30743;52.008;5.644;2022-07-29T01:01:44;20.10;95.70
45008;DHT22;30743;52.008;5.644;2022-07-29T01:04:09;20.30;95.80
45008;DHT22;30743;52.008;5.644;2022-07-29T01:06:35;20.50;95.60
45008;DHT22;30743;52.008;5.644;2022-07-29T01:09:01;20.60;95.40
45008;DHT22;30743;52.008;5.644;2022-07-29T01:11:27;20.70;95.30
45008;DHT22;30743;52.008;5.644;2022-07-29T01:13:53;20.70;95.10
45008;DHT22;30743;52.008;5.644;2022-07-29T01:16:29;20.70;95.30
45008;DHT22;30743;52.008;5.644;2022-07-29T01:21:55;20.60;95.60
45008;DHT22;30743;52.008;5.644;2022-07-29T01:24:39;20.60;95.50
45008;DHT22;30743;52.008;5.644;2022-07-29T01:27:42;20.80;95.50
45008;DHT22;30743;52.008;5.644;2022-07-29T01:30:10;20.80;95.10
45008;DHT22;30743;52.008;5.644;2022-07-29T01:32:37;20.70;95.40
45008;DHT22;30743;52.008;5.644;2022-07-29T01:35:12;20.80;95.30
45008;DHT22;30743;52.008;5.644;2022-07-29T01:37:45;20.80;95.10
45008;DHT22;30743;52.008;5.644;2022-07-29T01:40:41;20.70;95.00
45008;DHT22;30743;52.008;5.644;2022-07-29T01:43:16;20.90;95.10
45008;DHT22;30743;52.008;5.644;2022-07-29T01:45:49;21.10;94.90
45008;DHT22;30743;52.008;5.644;2022-07-29T01:48:22;21.10;94.70
45008;DHT22;30743;52.008;5.644;2022-07-29T01:50:52;21.10;94.70
45008;DHT22;30743;52.008;5.644;2022-07-29T01:53:34;21.30;94.60
45008;DHT22;30743;52.008;5.644;2022-07-29T01:56:01;21.30;94.40
45008;DHT22;30743;52.008;5.644;2022-07-29T01:58:29;21.50;94.40
45008;DHT22;30743;52.008;5.644;2022-07-29T02:00:57;21.60;94.20
45008;DHT22;30743;52.008;5.644;2022-07-29T02:03:24;21.70;93.80
45008;DHT22;30743;52.008;5.644;2022-07-29T02:05:52;21.80;93.80
45008;DHT22;30743;52.008;5.644;2022-07-29T02:08:19;21.90;93.80
45008;DHT22;30743;52.008;5.644;2022-07-29T02:10:45;22.00;93.90
45008;DHT22;30743;52.008;5.644;2022-07-29T02:13:13;22.10;93.50
45008;DHT22;30743;52.008;5.644;2022-07-29T02:15:42;22.20;93.50
45008;DHT22;30743;52.008;5.644;2022-07-29T02:18:11;22.30;93.50
45008;DHT22;30743;52.008;5.644;2022-07-29T02:20:39;22.30;93.60
45008;DHT22;30743;52.008;5.644;2022-07-29T02:23:06;22.30;93.50
45008;DHT22;30743;52.008;5.644;2022-07-29T02:25:32;22.30;93.40
45008;DHT22;30743;52.008;5.644;2022-07-29T02:27:59;22.10;93.20
45008;DHT22;30743;52.008;5.644;2022-07-29T02:30:27;21.90;93.60
45008;DHT22;30743;52.008;5.644;2022-07-29T02:32:54;21.70;93.80
45008;DHT22;30743;52.008;5.644;2022-07-29T02:35:21;21.70;94.20
45008;DHT22;30743;52.008;5.644;2022-07-29T02:37:47;21.60;94.20
45008;DHT22;30743;52.008;5.644;2022-07-29T02:40:34;21.60;94.50
45008;DHT22;30743;52.008;5.644;2022-07-29T02:43:03;21.40;94.70
45008;DHT22;30743;52.008;5.644;2022-07-29T02:45:30;21.30;94.90
45008;DHT22;30743;52.008;5.644;2022-07-29T02:47:58;21.10;95.20
45008;DHT22;30743;52.008;5.644;2022-07-29T02:50:38;21.00;95.50
45008;DHT22;30743;52.008;5.644;2022-07-29T02:53:07;20.90;95.70
45008;DHT22;30743;52.008;5.644;2022-07-29T03:00:47;20.40;97.20
45008;DHT22;30743;52.008;5.644;2022-07-29T03:03:16;20.40;97.40
45008;DHT22;30743;52.008;5.644;2022-07-29T03:05:43;20.40;97.60
45008;DHT22;30743;52.008;5.644;2022-07-29T03:08:11;20.30;97.80
45008;DHT22;30743;52.008;5.644;2022-07-29T03:10:39;20.20;98.00
45008;DHT22;30743;52.008;5.644;2022-07-29T03:13:05;20.20;98.40
45008;DHT22;30743;52.008;5.644;2022-07-29T03:15:33;20.10;98.30
45008;DHT22;30743;52.008;5.644;2022-07-29T03:17:59;19.80;99.00
45008;DHT22;30743;52.008;5.644;2022-07-29T03:20:26;19.70;99.40
45008;DHT22;30743;52.008;5.644;2022-07-29T03:22:52;19.70;99.90
45008;DHT22;30743;52.008;5.644;2022-07-29T03:25:18;19.80;99.90
45008;DHT22;30743;52.008;5.644;2022-07-29T03:27:46;19.60;99.90
45008;DHT22;30743;52.008;5.644;2022-07-29T03:30:12;19.60;99.90
45008;DHT22;30743;52.008;5.644;2022-07-29T03:32:39;19.60;99.90
45008;DHT22;30743;52.008;5.644;2022-07-29T03:35:05;19.50;99.90
45008;DHT22;30743;52.008;5.644;2022-07-29T03:37:31;19.40;99.90
45008;DHT22;30743;52.008;5.644;2022-07-29T03:39:58;19.40;99.90
45008;DHT22;30743;52.008;5.644;2022-07-29T03:42:26;19.20;99.90
45008;DHT22;30743;52.008;5.644;2022-07-29T03:44:53;19.10;99.90
45008;DHT22;30743;52.008;5.644;2022-07-29T03:47:22;19.20;99.90
45008;DHT22;30743;52.008;5.644;2022-07-29T03:49:50;19.20;99.90
45008;DHT22;30743;52.008;5.644;2022-07-29T03:52:17;19.10;99.90
45008;DHT22;30743;52.008;5.644;2022-07-29T03:54:43;18.90;99.90
45008;DHT22;30743;52.008;5.644;2022-07-29T03:57:10;18.80;99.90
45008;DHT22;30743;52.008;5.644;2022-07-29T03:59:36;18.80;99.90
45008;DHT22;30743;52.008;5.644;2022-07-29T04:02:04;18.70;99.90
45008;DHT22;30743;52.008;5.644;2022-07-29T04:04:33;18.80;99.90
45008;DHT22;30743;52.008;5.644;2022-07-29T04:06:58;18.90;99.90
45008;DHT22;30743;52.008;5.644;2022-07-29T04:09:24;19.00;99.90
45008;DHT22;30743;52.008;5.644;2022-07-29T04:11:50;19.20;99.90
45008;DHT22;30743;52.008;5.644;2022-07-29T04:14:15;19.30;99.90
45008;DHT22;30743;52.008;5.644;2022-07-29T04:16:41;19.60;99.90
45008;DHT22;30743;52.008;5.644;2022-07-29T04:19:06;19.90;99.90
45008;DHT22;30743;52.008;5.644;2022-07-29T04:21:37;19.90;99.90
45008;DHT22;30743;52.008;5.644;2022-07-29T04:24:03;19.70;99.90
45008;DHT22;30743;52.008;5.644;2022-07-29T04:26:28;19.60;99.90
45008;DHT22;30743;52.008;5.644;2022-07-29T04:28:54;19.50;99.90
45008;DHT22;30743;52.008;5.644;2022-07-29T04:31:19;19.30;99.90
45008;DHT22;30743;52.008;5.644;2022-07-29T04:33:45;19.10;99.90
45008;DHT22;30743;52.008;5.644;2022-07-29T04:36:10;18.90;99.90
45008;DHT22;30743;52.008;5.644;2022-07-29T04:38:36;18.90;99.90
45008;DHT22;30743;52.008;5.644;2022-07-29T04:41:02;19.10;99.90
45008;DHT22;30743;52.008;5.644;2022-07-29T04:43:27;19.20;99.90
45008;DHT22;30743;52.008;5.644;2022-07-29T04:45:53;18.90;99.90
45008;DHT22;30743;52.008;5.644;2022-07-29T04:48:18;19.00;99.90
45008;DHT22;30743;52.008;5.644;2022-07-29T04:50:44;19.00;99.90
45008;DHT22;30743;52.008;5.644;2022-07-29T04:53:09;18.70;99.90
45008;DHT22;30743;52.008;5.644;2022-07-29T04:55:35;18.80;99.90
45008;DHT22;30743;52.008;5.644;2022-07-29T04:58:01;18.60;99.90
45008;DHT22;30743;52.008;5.644;2022-07-29T05:00:27;18.70;99.90
45008;DHT22;30743;52.008;5.644;2022-07-29T05:02:52;18.80;99.90
45008;DHT22;30743;52.008;5.644;2022-07-29T05:05:18;18.90;99.90
45008;DHT22;30743;52.008;5.644;2022-07-29T05:07:43;18.90;99.90
45008;DHT22;30743;52.008;5.644;2022-07-29T05:10:09;19.10;99.90
45008;DHT22;30743;52.008;5.644;2022-07-29T05:12:35;19.10;99.90
45008;DHT22;30743;52.008;5.644;2022-07-29T05:15:00;19.10;99.90
45008;DHT22;30743;52.008;5.644;2022-07-29T05:17:26;18.90;99.90
45008;DHT22;30743;52.008;5.644;2022-07-29T05:19:52;18.90;99.90
45008;DHT22;30743;52.008;5.644;2022-07-29T05:22:20;19.00;99.90
45008;DHT22;30743;52.008;5.644;2022-07-29T05:24:46;19.30;99.90
45008;DHT22;30743;52.008;5.644;2022-07-29T05:27:12;19.40;99.90
45008;DHT22;30743;52.008;5.644;2022-07-29T05:29:38;19.60;99.90
45008;DHT22;30743;52.008;5.644;2022-07-29T05:32:04;20.00;99.90
45008;DHT22;30743;52.008;5.644;2022-07-29T05:34:30;20.00;99.90
45008;DHT22;30743;52.008;5.644;2022-07-29T05:36:56;20.10;99.90
45008;DHT22;30743;52.008;5.644;2022-07-29T05:39:22;20.00;99.90
45008;DHT22;30743;52.008;5.644;2022-07-29T05:41:48;20.20;99.90
45008;DHT22;30743;52.008;5.644;2022-07-29T05:44:13;20.30;99.90
45008;DHT22;30743;52.008;5.644;2022-07-29T05:46:39;20.20;99.90
45008;DHT22;30743;52.008;5.644;2022-07-29T05:49:05;20.20;99.90
45008;DHT22;30743;52.008;5.644;2022-07-29T05:51:32;20.30;99.90
45008;DHT22;30743;52.008;5.644;2022-07-29T05:53:58;20.10;99.90
45008;DHT22;30743;52.008;5.644;2022-07-29T05:56:24;20.20;99.90
45008;DHT22;30743;52.008;5.644;2022-07-29T05:58:50;20.40;99.90
45008;DHT22;30743;52.008;5.644;2022-07-29T06:01:16;20.60;99.90
45008;DHT22;30743;52.008;5.644;2022-07-29T06:03:41;20.80;99.90
45008;DHT22;30743;52.008;5.644;2022-07-29T06:06:07;21.00;99.90
45008;DHT22;30743;52.008;5.644;2022-07-29T06:08:33;21.00;99.90
45008;DHT22;30743;52.008;5.644;2022-07-29T06:11:00;21.20;99.90
45008;DHT22;30743;52.008;5.644;2022-07-29T06:13:25;21.30;99.90
45008;DHT22;30743;52.008;5.644;2022-07-29T06:15:51;21.50;99.90
45008;DHT22;30743;52.008;5.644;2022-07-29T06:18:17;21.50;99.90
45008;DHT22;30743;52.008;5.644;2022-07-29T06:20:42;21.60;99.90
45008;DHT22;30743;52.008;5.644;2022-07-29T06:23:08;21.70;99.90
45008;DHT22;30743;52.008;5.644;2022-07-29T06:25:35;21.60;99.90
45008;DHT22;30743;52.008;5.644;2022-07-29T06:28:02;21.50;99.90
45008;DHT22;30743;52.008;5.644;2022-07-29T06:30:27;21.50;99.90
45008;DHT22;30743;52.008;5.644;2022-07-29T06:32:54;21.70;99.90
45008;DHT22;30743;52.008;5.644;2022-07-29T06:35:19;21.70;99.90
45008;DHT22;30743;52.008;5.644;2022-07-29T06:37:45;21.80;99.90
45008;DHT22;30743;52.008;5.644;2022-07-29T06:40:11;21.80;99.90
45008;DHT22;30743;52.008;5.644;2022-07-29T06:42:55;21.70;99.90
45008;DHT22;30743;52.008;5.644;2022-07-29T06:45:20;21.70;99.90
45008;DHT22;30743;52.008;5.644;2022-07-29T06:47:46;21.60;99.90
45008;DHT22;30743;52.008;5.644;2022-07-29T06:50:12;21.60;99.90
45008;DHT22;30743;52.008;5.644;2022-07-29T06:52:38;21.70;99.90
45008;DHT22;30743;52.008;5.644;2022-07-29T06:55:04;21.60;99.90
45008;DHT22;30743;52.008;5.644;2022-07-29T06:57:30;21.70;99.90
45008;DHT22;30743;52.008;5.644;2022-07-29T06:59:58;21.80;99.90
45008;DHT22;30743;52.008;5.644;2022-07-29T07:02:24;21.80;99.90
45008;DHT22;30743;52.008;5.644;2022-07-29T07:04:49;21.70;99.90
45008;DHT22;30743;52.008;5.644;2022-07-29T07:07:15;21.60;99.90
45008;DHT22;30743;52.008;5.644;2022-07-29T07:09:40;21.60;99.90
45008;DHT22;30743;52.008;5.644;2022-07-29T07:12:06;21.60;99.90
45008;DHT22;30743;52.008;5.644;2022-07-29T07:14:32;21.70;99.90
45008;DHT22;30743;52.008;5.644;2022-07-29T07:16:58;21.70;99.90
45008;DHT22;30743;52.008;5.644;2022-07-29T07:19:25;21.80;99.90
45008;DHT22;30743;52.008;5.644;2022-07-29T07:21:52;21.90;99.90
45008;DHT22;30743;52.008;5.644;2022-07-29T07:24:18;22.10;99.90
45008;DHT22;30743;52.008;5.644;2022-07-29T07:26:43;21.90;99.90
45008;DHT22;30743;52.008;5.644;2022-07-29T07:29:09;22.10;99.90
45008;DHT22;30743;52.008;5.644;2022-07-29T07:31:35;22.00;99.90
45008;DHT22;30743;52.008;5.644;2022-07-29T07:34:01;22.20;99.90
45008;DHT22;30743;52.008;5.644;2022-07-29T07:36:26;22.40;99.90
45008;DHT22;30743;52.008;5.644;2022-07-29T07:38:52;22.50;99.90
45008;DHT22;30743;52.008;5.644;2022-07-29T07:41:17;22.50;99.90
45008;DHT22;30743;52.008;5.644;2022-07-29T07:43:43;22.30;99.90
45008;DHT22;30743;52.008;5.644;2022-07-29T07:46:08;22.30;99.90
45008;DHT22;30743;52.008;5.644;2022-07-29T07:48:34;22.50;99.90
45008;DHT22;30743;52.008;5.644;2022-07-29T07:51:00;22.90;99.90
45008;DHT22;30743;52.008;5.644;2022-07-29T07:53:25;23.10;99.80
45008;DHT22;30743;52.008;5.644;2022-07-29T07:55:51;23.40;99.50
45008;DHT22;30743;52.008;5.644;2022-07-29T07:58:17;23.50;99.00
45008;DHT22;30743;52.008;5.644;2022-07-29T08:00:42;23.50;98.70
45008;DHT22;30743;52.008;5.644;2022-07-29T08:03:08;23.30;99.10
45008;DHT22;30743;52.008;5.644;2022-07-29T08:05:33;23.70;98.50
45008;DHT22;30743;52.008;5.644;2022-07-29T08:07:59;23.90;98.40
45008;DHT22;30743;52.008;5.644;2022-07-29T08:10:25;23.70;97.90
45008;DHT22;30743;52.008;5.644;2022-07-29T08:13:09;23.90;97.80
45008;DHT22;30743;52.008;5.644;2022-07-29T08:15:39;24.30;97.60
45008;DHT22;30743;52.008;5.644;2022-07-29T08:18:04;24.40;97.40
45008;DHT22;30743;52.008;5.644;2022-07-29T08:20:30;24.40;99.00
45008;DHT22;30743;52.008;5.644;2022-07-29T08:22:57;24.50;98.40
45008;DHT22;30743;52.008;5.644;2022-07-29T08:25:22;24.90;97.80
45008;DHT22;30743;52.008;5.644;2022-07-29T08:27:48;25.30;97.40
45008;DHT22;30743;52.008;5.644;2022-07-29T08:30:13;25.40;96.00
45008;DHT22;30743;52.008;5.644;2022-07-29T08:32:39;25.60;95.50
45008;DHT22;30743;52.008;5.644;2022-07-29T08:35:05;25.70;94.70
45008;DHT22;30743;52.008;5.644;2022-07-29T08:37:30;25.70;94.70
45008;DHT22;30743;52.008;5.644;2022-07-29T08:39:56;25.70;94.20
45008;DHT22;30743;52.008;5.644;2022-07-29T08:42:21;26.00;94.80
45008;DHT22;30743;52.008;5.644;2022-07-29T08:44:48;26.10;94.70
45008;DHT22;30743;52.008;5.644;2022-07-29T08:47:14;26.30;94.50
45008;DHT22;30743;52.008;5.644;2022-07-29T08:49:39;26.60;94.30
45008;DHT22;30743;52.008;5.644;2022-07-29T08:52:06;26.90;93.70
45008;DHT22;30743;52.008;5.644;2022-07-29T08:54:32;27.10;93.30
45008;DHT22;30743;52.008;5.644;2022-07-29T08:56:58;27.30;93.30
45008;DHT22;30743;52.008;5.644;2022-07-29T08:59:26;27.60;92.50
45008;DHT22;30743;52.008;5.644;2022-07-29T09:01:53;27.80;92.00
45008;DHT22;30743;52.008;5.644;2022-07-29T09:04:19;28.00;92.20
45008;DHT22;30743;52.008;5.644;2022-07-29T09:06:48;28.20;91.80
45008;DHT22;30743;52.008;5.644;2022-07-29T09:09:14;28.20;91.10
45008;DHT22;30743;52.008;5.644;2022-07-29T09:11:41;28.30;91.20
45008;DHT22;30743;52.008;5.644;2022-07-29T09:14:07;28.30;91.10
45008;DHT22;30743;52.008;5.644;2022-07-29T09:16:44;28.30;91.60
45008;DHT22;30743;52.008;5.644;2022-07-29T09:19:34;28.40;90.90
45008;DHT22;30743;52.008;5.644;2022-07-29T09:22:05;28.60;90.80
45008;DHT22;30743;52.008;5.644;2022-07-29T09:27:00;28.80;90.30
45008;DHT22;30743;52.008;5.644;2022-07-29T09:29:27;28.90;90.50
45008;DHT22;30743;52.008;5.644;2022-07-29T09:31:54;29.00;90.60
45008;DHT22;30743;52.008;5.644;2022-07-29T09:34:25;29.10;90.20
45008;DHT22;30743;52.008;5.644;2022-07-29T09:36:52;29.10;89.80
45008;DHT22;30743;52.008;5.644;2022-07-29T09:39:39;29.30;88.60
45008;DHT22;30743;52.008;5.644;2022-07-29T09:42:11;29.40;88.90
45008;DHT22;30743;52.008;5.644;2022-07-29T09:44:45;29.50;89.20
45008;DHT22;30743;52.008;5.644;2022-07-29T09:47:11;29.40;88.10
45008;DHT22;30743;52.008;5.644;2022-07-29T09:49:53;29.30;88.60
45008;DHT22;30743;52.008;5.644;2022-07-29T09:52:19;29.60;89.80
45008;DHT22;30743;52.008;5.644;2022-07-29T09:54:45;29.70;89.00
45008;DHT22;30743;52.008;5.644;2022-07-29T09:57:27;29.70;88.80
45008;DHT22;30743;52.008;5.644;2022-07-29T10:02:28;29.30;88.40
45008;DHT22;30743;52.008;5.644;2022-07-29T10:04:54;29.40;86.50
45008;DHT22;30743;52.008;5.644;2022-07-29T10:07:19;29.60;87.60
45008;DHT22;30743;52.008;5.644;2022-07-29T10:09:56;29.80;89.60
45008;DHT22;30743;52.008;5.644;2022-07-29T10:12:22;29.60;89.30
45008;DHT22;30743;52.008;5.644;2022-07-29T10:14:49;29.60;86.50
45008;DHT22;30743;52.008;5.644;2022-07-29T10:17:15;29.60;85.20
45008;DHT22;30743;52.008;5.644;2022-07-29T10:19:42;29.70;84.70
45008;DHT22;30743;52.008;5.644;2022-07-29T10:22:09;29.80;84.20
45008;DHT22;30743;52.008;5.644;2022-07-29T10:24:36;30.10;86.10
45008;DHT22;30743;52.008;5.644;2022-07-29T10:27:04;30.40;86.50
45008;DHT22;30743;52.008;5.644;2022-07-29T10:29:30;30.70;83.50
45008;DHT22;30743;52.008;5.644;2022-07-29T10:38:05;30.90;80.80
45008;DHT22;30743;52.008;5.644;2022-07-29T10:43:44;31.40;80.80
45008;DHT22;30743;52.008;5.644;2022-07-29T10:46:11;31.60;79.90
45008;DHT22;30743;52.008;5.644;2022-07-29T10:49:11;31.80;79.40
45008;DHT22;30743;52.008;5.644;2022-07-29T10:52:04;31.80;80.90
45008;DHT22;30743;52.008;5.644;2022-07-29T10:54:49;31.90;79.40
45008;DHT22;30743;52.008;5.644;2022-07-29T10:59:49;31.90;75.70
45008;DHT22;30743;52.008;5.644;2022-07-29T11:07:26;32.40;75.80
45008;DHT22;30743;52.008;5.644;2022-07-29T11:15:16;32.60;75.60
45008;DHT22;30743;52.008;5.644;2022-07-29T11:20:36;32.80;72.90
45008;DHT22;30743;52.008;5.644;2022-07-29T11:23:28;32.70;76.10
45008;DHT22;30743;52.008;5.644;2022-07-29T11:26:20;32.70;76.10
45008;DHT22;30743;52.008;5.644;2022-07-29T11:31:41;32.30;77.40
45008;DHT22;30743;52.008;5.644;2022-07-29T11:34:19;32.30;75.30
45008;DHT22;30743;52.008;5.644;2022-07-29T11:39:41;32.50;74.90
45008;DHT22;30743;52.008;5.644;2022-07-29T11:47:22;33.40;71.70
45008;DHT22;30743;52.008;5.644;2022-07-29T11:49:49;33.20;71.70
45008;DHT22;30743;52.008;5.644;2022-07-29T11:52:16;33.30;75.20
45008;DHT22;30743;52.008;5.644;2022-07-29T11:54:42;33.40;73.60
45008;DHT22;30743;52.008;5.644;2022-07-29T11:57:08;33.30;72.50
45008;DHT22;30743;52.008;5.644;2022-07-29T11:59:43;33.10;72.40
45008;DHT22;30743;52.008;5.644;2022-07-29T12:02:09;33.20;73.20
45008;DHT22;30743;52.008;5.644;2022-07-29T12:04:55;33.40;74.00
45008;DHT22;30743;52.008;5.644;2022-07-29T12:09:53;33.60;75.80
45008;DHT22;30743;52.008;5.644;2022-07-29T12:12:19;33.80;77.20
45008;DHT22;30743;52.008;5.644;2022-07-29T12:14:45;34.00;73.40
45008;DHT22;30743;52.008;5.644;2022-07-29T12:17:32;34.30;73.80
45008;DHT22;30743;52.008;5.644;2022-07-29T12:20:02;34.50;73.30
45008;DHT22;30743;52.008;5.644;2022-07-29T12:22:30;34.70;73.00
45008;DHT22;30743;52.008;5.644;2022-07-29T12:25:05;35.10;71.20
45008;DHT22;30743;52.008;5.644;2022-07-29T12:27:31;35.00;70.90
45008;DHT22;30743;52.008;5.644;2022-07-29T12:29:58;35.20;69.70
45008;DHT22;30743;52.008;5.644;2022-07-29T12:32:37;35.40;71.00
45008;DHT22;30743;52.008;5.644;2022-07-29T12:35:05;35.40;70.60
45008;DHT22;30743;52.008;5.644;2022-07-29T12:37:33;35.30;70.90
45008;DHT22;30743;52.008;5.644;2022-07-29T12:39:59;35.20;71.80
45008;DHT22;30743;52.008;5.644;2022-07-29T12:42:25;35.30;72.80
45008;DHT22;30743;52.008;5.644;2022-07-29T12:44:50;35.20;70.30
45008;DHT22;30743;52.008;5.644;2022-07-29T12:47:18;35.10;69.00
45008;DHT22;30743;52.008;5.644;2022-07-29T12:49:44;35.20;69.60
45008;DHT22;30743;52.008;5.644;2022-07-29T12:52:29;35.40;69.60
45008;DHT22;30743;52.008;5.644;2022-07-29T12:54:55;35.50;71.10
45008;DHT22;30743;52.008;5.644;2022-07-29T12:57:21;35.40;71.10
45008;DHT22;30743;52.008;5.644;2022-07-29T13:02:36;35.50;71.50
45008;DHT22;30743;52.008;5.644;2022-07-29T13:05:02;35.50;69.40
45008;DHT22;30743;52.008;5.644;2022-07-29T13:07:30;35.40;71.10
45008;DHT22;30743;52.008;5.644;2022-07-29T13:10:11;35.10;70.20
45008;DHT22;30743;52.008;5.644;2022-07-29T13:12:38;35.20;72.50
45008;DHT22;30743;52.008;5.644;2022-07-29T13:15:16;34.70;72.70
45008;DHT22;30743;52.008;5.644;2022-07-29T13:17:42;34.60;75.00
45008;DHT22;30743;52.008;5.644;2022-07-29T13:20:10;34.20;73.40
45008;DHT22;30743;52.008;5.644;2022-07-29T13:22:46;34.30;75.30
45008;DHT22;30743;52.008;5.644;2022-07-29T13:25:12;34.40;72.00
45008;DHT22;30743;52.008;5.644;2022-07-29T13:27:38;34.40;71.60
45008;DHT22;30743;52.008;5.644;2022-07-29T13:30:07;34.50;75.00
45008;DHT22;30743;52.008;5.644;2022-07-29T13:32:34;34.50;72.70
45008;DHT22;30743;52.008;5.644;2022-07-29T13:35:01;34.30;75.30
45008;DHT22;30743;52.008;5.644;2022-07-29T13:37:27;34.20;73.10
45008;DHT22;30743;52.008;5.644;2022-07-29T13:39:57;34.30;73.90
45008;DHT22;30743;52.008;5.644;2022-07-29T13:42:24;34.60;75.60
45008;DHT22;30743;52.008;5.644;2022-07-29T13:44:50;34.70;75.20
45008;DHT22;30743;52.008;5.644;2022-07-29T13:47:20;34.90;73.10
45008;DHT22;30743;52.008;5.644;2022-07-29T13:49:46;35.10;73.80
45008;DHT22;30743;52.008;5.644;2022-07-29T13:52:11;35.20;70.70
45008;DHT22;30743;52.008;5.644;2022-07-29T13:54:37;35.40;71.40
45008;DHT22;30743;52.008;5.644;2022-07-29T13:57:04;35.40;69.10
45008;DHT22;30743;52.008;5.644;2022-07-29T13:59:30;35.40;71.60
45008;DHT22;30743;52.008;5.644;2022-07-29T14:01:55;35.20;72.70
45008;DHT22;30743;52.008;5.644;2022-07-29T14:04:21;35.20;74.00
45008;DHT22;30743;52.008;5.644;2022-07-29T14:06:48;35.10;72.80
45008;DHT22;30743;52.008;5.644;2022-07-29T14:09:14;35.00;73.20
45008;DHT22;30743;52.008;5.644;2022-07-29T14:11:40;35.10;73.60
45008;DHT22;30743;52.008;5.644;2022-07-29T14:14:05;35.20;73.30
45008;DHT22;30743;52.008;5.644;2022-07-29T14:16:31;35.20;72.40
45008;DHT22;30743;52.008;5.644;2022-07-29T14:18:56;35.20;70.90
45008;DHT22;30743;52.008;5.644;2022-07-29T14:21:22;35.40;70.60
45008;DHT22;30743;52.008;5.644;2022-07-29T14:23:48;35.30;73.40
45008;DHT22;30743;52.008;5.644;2022-07-29T14:26:13;35.50;73.50
45008;DHT22;30743;52.008;5.644;2022-07-29T14:28:39;35.60;70.60
45008;DHT22;30743;52.008;5.644;2022-07-29T14:31:04;35.60;70.10
45008;DHT22;30743;52.008;5.644;2022-07-29T14:33:30;35.80;68.50
45008;DHT22;30743;52.008;5.644;2022-07-29T14:35:55;35.80;67.20
45008;DHT22;30743;52.008;5.644;2022-07-29T14:38:21;35.90;69.50
45008;DHT22;30743;52.008;5.644;2022-07-29T14:40:47;36.10;67.70
45008;DHT22;30743;52.008;5.644;2022-07-29T14:43:15;35.90;66.80
45008;DHT22;30743;52.008;5.644;2022-07-29T14:45:41;36.10;67.20
45008;DHT22;30743;52.008;5.644;2022-07-29T14:48:06;36.10;67.00
45008;DHT22;30743;52.008;5.644;2022-07-29T14:50:32;36.20;68.70
45008;DHT22;30743;52.008;5.644;2022-07-29T14:52:58;36.20;68.00
45008;DHT22;30743;52.008;5.644;2022-07-29T14:55:24;36.20;67.00
45008;DHT22;30743;52.008;5.644;2022-07-29T14:57:50;36.10;69.20
45008;DHT22;30743;52.008;5.644;2022-07-29T15:00:16;36.00;67.10
45008;DHT22;30743;52.008;5.644;2022-07-29T15:02:42;36.10;68.90
45008;DHT22;30743;52.008;5.644;2022-07-29T15:05:07;36.20;69.70
45008;DHT22;30743;52.008;5.644;2022-07-29T15:07:33;36.10;67.90
45008;DHT22;30743;52.008;5.644;2022-07-29T15:09:59;36.00;66.40
45008;DHT22;30743;52.008;5.644;2022-07-29T15:12:24;36.00;67.40
45008;DHT22;30743;52.008;5.644;2022-07-29T15:14:50;36.00;67.40
45008;DHT22;30743;52.008;5.644;2022-07-29T15:17:15;36.10;68.70
45008;DHT22;30743;52.008;5.644;2022-07-29T15:19:40;36.00;65.60
45008;DHT22;30743;52.008;5.644;2022-07-29T15:22:06;36.00;65.20
45008;DHT22;30743;52.008;5.644;2022-07-29T15:24:32;36.00;65.50
45008;DHT22;30743;52.008;5.644;2022-07-29T15:26:57;36.00;66.50
45008;DHT22;30743;52.008;5.644;2022-07-29T15:29:23;35.60;66.20
45008;DHT22;30743;52.008;5.644;2022-07-29T15:31:49;35.60;67.60
45008;DHT22;30743;52.008;5.644;2022-07-29T15:34:14;35.40;66.30
45008;DHT22;30743;52.008;5.644;2022-07-29T15:36:40;35.40;66.80
45008;DHT22;30743;52.008;5.644;2022-07-29T15:39:05;35.20;66.00
45008;DHT22;30743;52.008;5.644;2022-07-29T15:41:32;35.30;67.70
45008;DHT22;30743;52.008;5.644;2022-07-29T15:43:57;35.30;67.60
45008;DHT22;30743;52.008;5.644;2022-07-29T15:46:23;35.10;66.90
45008;DHT22;30743;52.008;5.644;2022-07-29T15:49:08;35.10;67.00
45008;DHT22;30743;52.008;5.644;2022-07-29T15:51:34;34.70;67.70
45008;DHT22;30743;52.008;5.644;2022-07-29T15:54:03;34.60;68.90
45008;DHT22;30743;52.008;5.644;2022-07-29T15:56:29;34.50;66.90
45008;DHT22;30743;52.008;5.644;2022-07-29T15:58:55;34.40;68.10
45008;DHT22;30743;52.008;5.644;2022-07-29T16:01:21;34.20;68.50
45008;DHT22;30743;52.008;5.644;2022-07-29T16:03:46;34.20;70.10
45008;DHT22;30743;52.008;5.644;2022-07-29T16:06:12;34.20;68.60
45008;DHT22;30743;52.008;5.644;2022-07-29T16:08:38;34.10;69.10
45008;DHT22;30743;52.008;5.644;2022-07-29T16:11:04;34.10;69.60
45008;DHT22;30743;52.008;5.644;2022-07-29T16:13:29;34.20;69.10
45008;DHT22;30743;52.008;5.644;2022-07-29T16:15:54;34.00;70.10
45008;DHT22;30743;52.008;5.644;2022-07-29T16:18:20;33.80;70.50
45008;DHT22;30743;52.008;5.644;2022-07-29T16:20:45;33.40;70.90
45008;DHT22;30743;52.008;5.644;2022-07-29T16:23:11;33.30;70.20
45008;DHT22;30743;52.008;5.644;2022-07-29T16:28:09;33.40;72.10
45008;DHT22;30743;52.008;5.644;2022-07-29T16:30:35;33.00;71.40